AIRPORT_AIRPORT_METAR
METAR FOR LFBP
ADDS - METARS form results

(1454 UTC 18 August 2019)
Data provider http://aviationweather.gov/metar/data/
 
METAR text: LFBP 181430Z AUTO 24007KT 9999 FEW031 OVC041 24/20 Q1014 BECMG 30010KT
Conditions at: LFBP (PONT-LONG-UZEIN/, FR) observed 1430 UTC 18 August 2019
Temperature: 24.0°C (75°F)
Dewpoint: 20.0°C (68°F) [RH = 78%]
Pressure (altimeter): 29.94 inches Hg (1014.0 mb)
Winds: from the WSW (240 degrees) at 8 MPH (7 knots; 3.6 m/s)
Visibility: 6 or more miles (10+ km)
Ceiling: 4100 feet AGL
Clouds: few clouds at 3100 feet AGL
overcast cloud deck at 4100 feet AGL
Weather: no significant weather observed at this time

METAR text: LFBP 181400Z AUTO 21007KT 9999 BKN043 BKN050 24/19 Q1014 BECMG 30010KT
Conditions at: LFBP (PONT-LONG-UZEIN/, FR) observed 1400 UTC 18 August 2019
Temperature: 24.0°C (75°F)
Dewpoint: 19.0°C (66°F) [RH = 74%]
Pressure (altimeter): 29.94 inches Hg (1014.0 mb)
Winds: from the SSW (210 degrees) at 8 MPH (7 knots; 3.6 m/s)
Visibility: 6 or more miles (10+ km)
Ceiling: 4300 feet AGL
Clouds: broken clouds at 4300 feet AGL
broken clouds at 5000 feet AGL
Weather: no significant weather observed at this time

Forecast for: LFBP (PONT-LONG-UZEIN/, FR)
Text: TAF LFBP 181100Z 1812/1912 30010KT 9999 SCT025 BKN035
Forecast period: 1200 UTC 18 August 2019 to 1200 UTC 19 August 2019
Forecast type: FROM: standard forecast or significant change
Winds: from the WNW (300 degrees) at 12 MPH (10 knots; 5.1 m/s)
Visibility: 6 or more miles 10+ km)
Ceiling: 3500 feet AGL
Clouds: scattered clouds at 2500 feet AGL
broken clouds at 3500 feet AGL
Weather: no significant weather forecast for this period
Text: TEMPO 1814/1909 -RA BKN020
Forecast period: 1400 UTC 18 August 2019 to 0900 UTC 19 August 2019
Forecast type: TEMPORARY: The following changes expected for less than half the time period
Visibility: missing
Ceiling: 2000 feet AGL
Clouds: broken clouds at 2000 feet AGL
Weather: -RA  (light rain)

 AIRPORT_AIRPORT_MAP

 AIRPORT_RUNWAY_INFO
AIRPORT_RUNWAY 13 AIRPORT_RUNWAY_LENGTH 8202 ft AIRPORT_RUNWAY_WIDTH 148 ft
AIRPORT_RUNWAY_ELEVATION 581 ft AIRPORT_RUNWAY_THRESHOLD 0 ft AIRPORT_RUNWAY_HEADING 125
AIRPORT_RUNWAY 31 AIRPORT_RUNWAY_LENGTH 8202 ft AIRPORT_RUNWAY_WIDTH 148 ft
AIRPORT_RUNWAY_ELEVATION 616 ft AIRPORT_RUNWAY_THRESHOLD 0 ft AIRPORT_RUNWAY_HEADING 305

 AIRPORT_AIRPORT_FREQUENCIES
AIRPORT_AIRPORT_NAVAIDS_TYPE APP AIRPORT_AIRPORT_NAVAIDS_NAME PYRENEES A AIRPORT_AIRPORT_NAVAIDS_FREQ 121.175 MHZ
AIRPORT_AIRPORT_NAVAIDS_TYPE ATIS AIRPORT_AIRPORT_NAVAIDS_NAME ATIS AIRPORT_AIRPORT_NAVAIDS_FREQ 128.475 MHZ
AIRPORT_AIRPORT_NAVAIDS_TYPE GND AIRPORT_AIRPORT_NAVAIDS_NAME GND AIRPORT_AIRPORT_NAVAIDS_FREQ 121.75 MHZ
AIRPORT_AIRPORT_NAVAIDS_TYPE TWR AIRPORT_AIRPORT_NAVAIDS_NAME TWR AIRPORT_AIRPORT_NAVAIDS_FREQ 124.15 MHZ

 AIRPORT_AIRPORT_NAVAIDS



Copyright © 2005-2019 - Virtuel Air Alsace - Tous droits réservés